createdAt,value
2019-03-29T00:00:02.702Z,5.2
2019-03-29T00:15:02.985Z,5.5
2019-03-29T00:30:02.450Z,5.2
2019-03-29T00:45:02.808Z,4.7
2019-03-29T01:00:03.122Z,4.9
2019-03-29T01:15:02.484Z,4.4
2019-03-29T01:30:02.877Z,4.3
2019-03-29T01:45:03.199Z,4.2
2019-03-29T02:00:02.454Z,3.8
2019-03-29T02:15:02.782Z,3.7
2019-03-29T02:30:04.508Z,3.6
2019-03-29T02:45:03.528Z,3.6
2019-03-29T03:00:02.804Z,3.6
2019-03-29T03:15:03.062Z,3.4
2019-03-29T03:30:02.418Z,2.9
2019-03-29T03:45:02.731Z,2.9
2019-03-29T04:00:03.014Z,2.8
2019-03-29T04:15:02.898Z,2.5
2019-03-29T04:30:03.312Z,2.6
2019-03-29T04:45:02.556Z,2.4
2019-03-29T05:00:02.896Z,2
2019-03-29T05:15:03.362Z,2
2019-03-29T05:30:02.728Z,1.9
2019-03-29T05:45:03.107Z,2.2
2019-03-29T06:00:03.316Z,2.4
2019-03-29T06:15:02.700Z,3.1
2019-03-29T06:30:03.276Z,4.1
2019-03-29T06:45:02.760Z,5
2019-03-29T07:00:03.043Z,5.8
2019-03-29T07:15:03.447Z,6.6
2019-03-29T07:30:02.816Z,7.1
2019-03-29T07:45:02.489Z,7.9
2019-03-29T08:00:02.751Z,8.6
2019-03-29T08:15:03.205Z,8.8
2019-03-29T08:30:03.304Z,9.4
2019-03-29T08:45:02.659Z,10.8
2019-03-29T09:00:02.985Z,10.9
2019-03-29T09:15:04.120Z,11.2
2019-03-29T09:30:05.051Z,11.7
2019-03-29T09:45:03.127Z,12.6
2019-03-29T10:00:17.290Z,12.6
2019-03-29T10:15:02.513Z,13.4
2019-03-29T10:30:03.068Z,13.8
2019-03-29T10:45:03.280Z,13.9
2019-03-29T11:00:02.667Z,13.6
2019-03-29T11:15:06.430Z,14.1
2019-03-29T11:30:02.689Z,13.7
2019-03-29T11:45:03.062Z,13.9
2019-03-29T12:00:03.390Z,15
2019-03-29T12:15:02.904Z,15.2
2019-03-29T12:30:03.233Z,14.8
2019-03-29T12:45:02.497Z,14.6
2019-03-29T13:00:02.691Z,15.1
2019-03-29T13:15:03.038Z,15.6
2019-03-29T13:30:02.458Z,14.8
2019-03-29T13:45:02.807Z,15.2
2019-03-29T14:00:03.312Z,15.2
2019-03-29T14:15:02.578Z,15.2
2019-03-29T14:30:04.495Z,15.4
2019-03-29T14:45:02.499Z,15.3
2019-03-29T15:00:02.832Z,16.1
2019-03-29T15:15:06.198Z,15.4
2019-03-29T15:30:02.943Z,15.1
2019-03-29T15:45:03.322Z,14.6
2019-03-29T16:00:03.551Z,14.4
2019-03-29T16:15:02.592Z,14.4
2019-03-29T16:30:02.969Z,14
2019-03-29T16:45:02.499Z,13.6
2019-03-29T17:00:02.785Z,13.2
2019-03-29T17:15:03.382Z,12.7
2019-03-29T17:30:02.813Z,12.1
2019-03-29T17:45:03.130Z,11.4
2019-03-29T18:00:03.342Z,10.4
2019-03-29T18:15:02.645Z,9.9
2019-03-29T18:30:03.030Z,9.3
2019-03-29T18:45:03.315Z,8.9
2019-03-29T19:00:02.886Z,8.6
2019-03-29T19:15:03.136Z,8.2
2019-03-29T19:30:02.557Z,7.9
2019-03-29T19:45:02.885Z,7.2
2019-03-29T20:00:06.061Z,7.1
2019-03-29T20:15:02.561Z,6.8
2019-03-29T20:30:03.078Z,6.2
2019-03-29T20:45:03.437Z,6.2
2019-03-29T21:00:02.722Z,5.9
2019-03-29T21:15:02.927Z,5.4
2019-03-29T21:30:03.467Z,5.5
2019-03-29T21:45:02.799Z,5.1
2019-03-29T22:00:03.141Z,4.9
2019-03-29T22:15:04.310Z,4.6
2019-03-29T22:30:02.716Z,4.5
2019-03-29T22:45:03.109Z,4.2
2019-03-29T23:00:03.496Z,3.8
2019-03-29T23:15:02.697Z,3.4
2019-03-29T23:30:03.196Z,3.5
2019-03-29T23:45:03.444Z,3.3
